Terminal Aerodrome Forecast
Issued by NWS Knoxville/Tri Cities, TN

Home | Current Version | Previous Version | Text Only | Print | Product List | Glossary On
Versions: 1 2 3 4 5 6 7 8 9 10 11 12 13 14 15 16 17 18 19 20 21 22 23 24 25 26
000
FTUS44 KMRX 062331
TAFTRI
TAF
KTRI 062331Z 0700/0724 00000KT P6SM FEW040 SCT100 BKN220
     FM070300 00000KT P6SM BKN250
     FM070800 00000KT 4SM BR SCT080
     FM071300 00000KT P6SM SCT080
     FM071800 VRB03KT P6SM SCT100 BKN250=

USA.gov is the U.S. government's official web portal to all federal, state and local government web resources and services.